Time,TemperatureF,DewpointF,PressureIn,WindDirection,WindDirectionDegrees,WindSpeedMPH,WindSpeedGustMPH,Humidity,HourlyPrecipIn,Conditions,Clouds,dailyrainin,SoftwareType,DateUTC
2013-11-08 00:00:00,79.6,78.1,29.87,NW,307,3.0,11.0,95,0.53,,,0.00,VWS V14.01,2013-11-08 06:00:00,
2013-11-08 00:01:00,79.6,78.1,29.86,NNW,345,3.0,3.0,95,0.53,,,0.02,VWS V14.01,2013-11-08 06:01:00,
2013-11-08 00:06:00,79.5,77.9,29.86,WNW,287,6.0,9.0,95,0.66,,,0.15,VWS V14.01,2013-11-08 06:06:00,
2013-11-08 00:11:00,79.4,77.8,29.86,North,1,2.0,9.0,95,0.68,,,0.17,VWS V14.01,2013-11-08 06:11:00,
2013-11-08 00:16:00,79.0,77.4,29.86,West,266,0.0,9.0,95,0.70,,,0.19,VWS V14.01,2013-11-08 06:16:00,
2013-11-08 00:21:00,78.9,77.3,29.86,West,274,2.0,9.0,95,0.70,,,0.19,VWS V14.01,2013-11-08 06:21:00,
2013-11-08 00:26:00,78.9,77.3,29.86,WNW,300,2.0,9.0,95,0.74,,,0.23,VWS V14.01,2013-11-08 06:26:00,
2013-11-08 00:30:00,78.8,77.2,29.86,WNW,301,1.0,9.0,95,0.86,,,0.35,VWS V14.01,2013-11-08 06:30:00,
2013-11-08 00:31:00,78.8,77.2,29.86,West,269,1.0,2.0,95,0.73,,,0.35,VWS V14.01,2013-11-08 06:31:00,
2013-11-08 00:36:00,78.8,77.6,29.85,North,351,0.0,2.0,96,0.74,,,0.36,VWS V14.01,2013-11-08 06:36:00,
2013-11-08 00:41:00,78.9,77.7,29.85,WSW,256,0.0,2.0,96,0.74,,,0.36,VWS V14.01,2013-11-08 06:41:00,
2013-11-08 00:46:00,78.9,77.7,29.85,WSW,245,0.0,2.0,96,0.74,,,0.36,VWS V14.01,2013-11-08 06:46:00,
2013-11-08 00:51:00,79.0,77.8,29.85,WNW,300,0.0,2.0,96,0.74,,,0.36,VWS V14.01,2013-11-08 06:51:00,
2013-11-08 00:56:00,79.1,77.9,29.85,West,274,5.0,9.0,96,0.75,,,0.37,VWS V14.01,2013-11-08 06:56:00,
2013-11-08 01:00:00,78.7,77.2,29.85,WNW,294,8.0,9.0,95,0.75,,,0.37,VWS V14.01,2013-11-08 07:00:00,
2013-11-08 01:01:00,78.6,77.1,29.85,WSW,255,5.0,8.0,95,0.37,,,0.37,VWS V14.01,2013-11-08 07:01:00,
2013-11-08 01:06:00,78.2,76.7,29.84,SSW,201,2.0,12.0,95,0.37,,,0.37,VWS V14.01,2013-11-08 07:06:00,
2013-11-08 01:11:00,78.0,76.8,29.84,West,281,3.0,12.0,96,0.37,,,0.37,VWS V14.01,2013-11-08 07:11:00,
2013-11-08 01:16:00,78.1,76.9,29.84,SW,236,2.0,12.0,96,0.38,,,0.38,VWS V14.01,2013-11-08 07:16:00,
2013-11-08 01:21:00,78.0,76.8,29.83,West,263,3.0,12.0,96,0.39,,,0.39,VWS V14.01,2013-11-08 07:21:00,
2013-11-08 01:26:00,78.0,76.8,29.83,West,263,7.0,12.0,96,0.39,,,0.39,VWS V14.01,2013-11-08 07:26:00,
2013-11-08 01:30:00,77.9,76.4,29.83,SE,143,5.0,13.0,95,0.39,,,0.39,VWS V14.01,2013-11-08 07:30:00,
2013-11-08 01:31:00,77.8,76.3,29.83,SW,232,10.0,13.0,95,0.04,,,0.39,VWS V14.01,2013-11-08 07:31:00,
2013-11-08 01:36:00,77.9,76.4,29.83,SSW,211,11.0,16.0,95,0.04,,,0.39,VWS V14.01,2013-11-08 07:36:00,
2013-11-08 01:41:00,78.2,76.7,29.83,SSW,207,12.0,17.0,95,0.04,,,0.39,VWS V14.01,2013-11-08 07:41:00,
2013-11-08 01:46:00,78.2,76.3,29.83,SSE,163,9.0,17.0,94,0.04,,,0.39,VWS V14.01,2013-11-08 07:46:00,
2013-11-08 01:51:00,78.3,76.8,29.83,South,190,11.0,17.0,95,0.04,,,0.39,VWS V14.01,2013-11-08 07:51:00,
2013-11-08 01:56:00,78.3,76.8,29.83,SW,229,7.0,17.0,95,0.04,,,0.39,VWS V14.01,2013-11-08 07:56:00,
2013-11-08 02:00:00,78.5,76.9,29.83,SSE,167,7.0,17.0,95,0.04,,,0.39,VWS V14.01,2013-11-08 08:00:00,
2013-11-08 02:01:00,78.5,76.9,29.83,South,183,7.0,8.0,95,0.02,,,0.39,VWS V14.01,2013-11-08 08:01:00,
2013-11-08 02:06:00,78.5,76.9,29.82,SE,133,2.0,13.0,95,0.02,,,0.39,VWS V14.01,2013-11-08 08:06:00,
2013-11-08 02:11:00,78.4,76.5,29.82,SE,143,4.0,13.0,94,0.13,,,0.50,VWS V14.01,2013-11-08 08:11:00,
2013-11-08 02:16:00,78.3,76.4,29.82,WNW,295,5.0,13.0,94,0.34,,,0.71,VWS V14.01,2013-11-08 08:16:00,
2013-11-08 02:21:00,77.7,76.2,29.82,SW,235,0.0,13.0,95,0.48,,,0.85,VWS V14.01,2013-11-08 08:21:00,
2013-11-08 02:26:00,77.7,76.5,29.81,ENE,72,4.0,13.0,96,0.49,,,0.86,VWS V14.01,2013-11-08 08:26:00,
2013-11-08 02:30:00,77.8,76.3,29.81,NNW,332,0.0,13.0,95,0.55,,,0.92,VWS V14.01,2013-11-08 08:30:00,
2013-11-08 02:31:00,77.8,76.3,29.81,NE,45,1.0,2.0,95,0.53,,,0.92,VWS V14.01,2013-11-08 08:31:00,
2013-11-08 02:36:00,77.6,76.1,29.82,NNE,22,0.0,3.0,95,0.63,,,1.02,VWS V14.01,2013-11-08 08:36:00,
2013-11-08 02:41:00,77.5,76.3,29.82,ENE,72,6.0,6.0,96,0.86,,,1.25,VWS V14.01,2013-11-08 08:41:00,
2013-11-08 02:46:00,77.5,76.3,29.83,South,186,14.0,14.0,96,1.29,,,1.68,VWS V14.01,2013-11-08 08:46:00,
2013-11-08 02:51:00,77.4,76.2,29.82,SE,146,19.0,22.0,96,1.73,,,2.12,VWS V14.01,2013-11-08 08:51:00,
2013-11-08 02:56:00,76.8,75.6,29.82,South,174,18.0,24.0,96,2.15,,,2.54,VWS V14.01,2013-11-08 08:56:00,
2013-11-08 03:00:00,77.0,76.1,29.83,SW,221,16.0,24.0,97,2.58,,,2.97,VWS V14.01,2013-11-08 09:00:00,
2013-11-08 03:01:00,77.0,76.1,29.83,WNW,293,7.0,16.0,97,2.63,,,3.02,VWS V14.01,2013-11-08 09:01:00,
2013-11-08 03:06:00,77.0,76.1,29.82,WNW,291,13.0,19.0,97,3.01,,,3.40,VWS V14.01,2013-11-08 09:06:00,
2013-11-08 03:14:00,76.1,75.2,29.84,WSW,250,12.0,19.0,97,3.45,,,3.84,VWS V14.01,2013-11-08 09:14:00,
2013-11-08 03:19:00,75.9,75.0,29.82,WSW,257,18.0,24.0,97,3.52,,,3.91,VWS V14.01,2013-11-08 09:19:00,
2013-11-08 03:24:00,75.8,74.9,29.82,SW,232,19.0,24.0,97,3.53,,,3.92,VWS V14.01,2013-11-08 09:24:00,
2013-11-08 03:29:00,75.7,74.8,29.83,WNW,295,5.0,24.0,97,3.56,,,3.95,VWS V14.01,2013-11-08 09:29:00,
2013-11-08 03:30:00,75.6,74.7,29.83,WNW,292,7.0,24.0,97,3.57,,,3.96,VWS V14.01,2013-11-08 09:30:00,
2013-11-08 03:34:00,75.3,74.4,29.82,SW,225,9.0,17.0,97,3.07,,,3.99,VWS V14.01,2013-11-08 09:34:00,
2013-11-08 03:39:00,75.2,74.3,29.83,West,260,11.0,17.0,97,3.09,,,4.01,VWS V14.01,2013-11-08 09:39:00,
2013-11-08 03:44:00,75.3,74.7,29.83,SW,221,5.0,17.0,98,3.11,,,4.03,VWS V14.01,2013-11-08 09:44:00,
2013-11-08 03:49:00,75.7,75.1,29.84,SSE,159,4.0,17.0,98,3.12,,,4.04,VWS V14.01,2013-11-08 09:49:00,
2013-11-08 03:54:00,76.0,75.4,29.84,SE,139,2.0,17.0,98,3.13,,,4.05,VWS V14.01,2013-11-08 09:54:00,
2013-11-08 03:59:00,76.2,75.6,29.85,West,267,0.0,17.0,98,3.15,,,4.07,VWS V14.01,2013-11-08 09:59:00,
2013-11-08 04:00:00,76.2,75.6,29.85,WNW,287,2.0,17.0,98,3.16,,,4.08,VWS V14.01,2013-11-08 10:00:00,
2013-11-08 04:04:00,76.2,75.6,29.84,SSW,207,4.0,9.0,98,1.14,,,4.11,VWS V14.01,2013-11-08 10:04:00,
2013-11-08 04:09:00,76.5,75.9,29.85,South,174,4.0,9.0,98,1.20,,,4.17,VWS V14.01,2013-11-08 10:09:00,
2013-11-08 04:14:00,76.5,75.9,29.84,SW,216,6.0,16.0,98,1.40,,,4.37,VWS V14.01,2013-11-08 10:14:00,
2013-11-08 04:19:00,76.5,75.9,29.84,SW,219,10.0,16.0,98,1.54,,,4.51,VWS V14.01,2013-11-08 10:19:00,
2013-11-08 04:24:00,76.8,76.2,29.84,West,263,9.0,16.0,98,1.61,,,4.58,VWS V14.01,2013-11-08 10:24:00,
2013-11-08 04:29:00,76.4,75.5,29.84,WSW,257,13.0,20.0,97,1.65,,,4.62,VWS V14.01,2013-11-08 10:29:00,
2013-11-08 04:30:00,76.3,75.4,29.84,WSW,240,13.0,20.0,97,1.66,,,4.63,VWS V14.01,2013-11-08 10:30:00,
2013-11-08 04:34:00,76.2,75.3,29.83,SW,216,10.0,16.0,97,0.68,,,4.64,VWS V14.01,2013-11-08 10:34:00,
2013-11-08 04:39:00,76.2,75.6,29.83,NW,315,4.0,19.0,98,0.73,,,4.69,VWS V14.01,2013-11-08 10:39:00,
2013-11-08 04:44:00,76.1,75.2,29.83,WSW,253,9.0,19.0,97,0.78,,,4.74,VWS V14.01,2013-11-08 10:44:00,
2013-11-08 04:49:00,75.9,75.0,29.83,West,267,10.0,19.0,97,0.78,,,4.74,VWS V14.01,2013-11-08 10:49:00,
2013-11-08 04:54:00,75.9,75.3,29.83,WSW,255,7.0,19.0,98,0.79,,,4.75,VWS V14.01,2013-11-08 10:54:00,
2013-11-08 04:59:00,76.1,75.5,29.83,SSW,193,4.0,19.0,98,0.79,,,4.75,VWS V14.01,2013-11-08 10:59:00,
2013-11-08 05:00:00,76.2,75.6,29.83,WSW,255,7.0,19.0,98,0.79,,,4.75,VWS V14.01,2013-11-08 11:00:00,
2013-11-08 05:04:00,76.5,75.9,29.83,SSW,208,5.0,9.0,98,0.67,,,4.75,VWS V14.01,2013-11-08 11:04:00,
2013-11-08 05:09:00,76.6,76.0,29.83,SW,229,3.0,10.0,98,0.67,,,4.75,VWS V14.01,2013-11-08 11:09:00,
2013-11-08 05:14:00,76.6,76.0,29.84,SW,217,8.0,12.0,98,0.67,,,4.75,VWS V14.01,2013-11-08 11:14:00,
2013-11-08 05:19:00,76.6,76.0,29.84,WNW,292,1.0,12.0,98,0.67,,,4.75,VWS V14.01,2013-11-08 11:19:00,
2013-11-08 05:24:00,76.6,76.0,29.85,WSW,245,0.0,12.0,98,0.67,,,4.75,VWS V14.01,2013-11-08 11:24:00,
2013-11-08 05:29:00,76.7,76.1,29.85,West,274,4.0,12.0,98,0.67,,,4.75,VWS V14.01,2013-11-08 11:29:00,
2013-11-08 05:30:00,76.7,76.1,29.85,SW,231,6.0,12.0,98,0.67,,,4.75,VWS V14.01,2013-11-08 11:30:00,
2013-11-08 05:34:00,76.8,76.2,29.85,SSW,205,5.0,7.0,98,0.12,,,4.75,VWS V14.01,2013-11-08 11:34:00,
2013-11-08 05:39:00,76.8,76.2,29.85,WSW,250,3.0,7.0,98,0.12,,,4.75,VWS V14.01,2013-11-08 11:39:00,
2013-11-08 05:44:00,76.9,76.3,29.85,SSW,204,3.0,7.0,98,0.13,,,4.76,VWS V14.01,2013-11-08 11:44:00,
2013-11-08 05:49:00,76.9,76.3,29.85,SSW,204,6.0,8.0,98,0.15,,,4.78,VWS V14.01,2013-11-08 11:49:00,
2013-11-08 05:54:00,77.0,76.4,29.86,WSW,248,8.0,9.0,98,0.15,,,4.78,VWS V14.01,2013-11-08 11:54:00,
2013-11-08 05:59:00,77.1,76.5,29.86,WSW,245,3.0,9.0,98,0.16,,,4.79,VWS V14.01,2013-11-08 11:59:00,
2013-11-08 06:00:00,77.2,76.6,29.86,SW,219,2.0,9.0,98,0.16,,,4.79,VWS V14.01,2013-11-08 12:00:00,
2013-11-08 06:04:00,77.2,76.6,29.86,SW,233,1.0,4.0,98,0.04,,,4.79,VWS V14.01,2013-11-08 12:04:00,
2013-11-08 06:09:00,77.0,76.1,29.87,NNW,328,1.0,4.0,97,0.04,,,4.79,VWS V14.01,2013-11-08 12:09:00,
2013-11-08 06:14:00,76.0,74.8,29.87,West,264,5.0,7.0,96,0.04,,,4.79,VWS V14.01,2013-11-08 12:14:00,
2013-11-08 06:19:00,75.3,74.4,29.88,WNW,300,1.0,7.0,97,0.05,,,4.80,VWS V14.01,2013-11-08 12:19:00,
2013-11-08 06:24:00,75.2,74.3,29.87,WNW,293,7.0,9.0,97,0.07,,,4.82,VWS V14.01,2013-11-08 12:24:00,
2013-11-08 06:29:00,75.5,74.9,29.87,West,277,7.0,11.0,98,0.09,,,4.84,VWS V14.01,2013-11-08 12:29:00,
2013-11-08 06:30:00,75.7,75.1,29.87,WSW,245,4.0,12.0,98,0.10,,,4.85,VWS V14.01,2013-11-08 12:30:00,
2013-11-08 06:34:00,76.1,75.5,29.87,West,270,6.0,14.0,98,0.10,,,4.85,VWS V14.01,2013-11-08 12:34:00,
2013-11-08 06:39:00,76.3,75.7,29.87,West,266,7.0,14.0,98,0.10,,,4.85,VWS V14.01,2013-11-08 12:39:00,
2013-11-08 06:44:00,76.4,75.8,29.88,WSW,252,8.0,14.0,98,0.10,,,4.85,VWS V14.01,2013-11-08 12:44:00,
2013-11-08 06:49:00,76.4,75.8,29.88,SW,233,9.0,14.0,98,0.11,,,4.86,VWS V14.01,2013-11-08 12:49:00,
2013-11-08 06:53:00,76.2,75.3,29.88,SW,236,6.0,14.0,97,0.11,,,4.86,VWS V14.01,2013-11-08 12:53:00,
2013-11-08 06:58:00,76.2,75.6,29.89,WSW,249,6.0,14.0,98,0.11,,,4.86,VWS V14.01,2013-11-08 12:58:00,
2013-11-08 07:00:00,76.3,75.7,29.88,WNW,284,2.0,14.0,98,0.11,,,4.86,VWS V14.01,2013-11-08 13:00:00,
2013-11-08 07:30:00,76.4,75.8,29.90,WSW,248,5.0,15.0,98,0.07,,,4.86,VWS V14.01,2013-11-08 13:30:00,
2013-11-08 08:00:00,77.5,76.6,29.90,WSW,248,5.0,12.0,97,0.01,,,4.86,VWS V14.01,2013-11-08 14:00:00,
2013-11-08 08:30:00,77.8,76.9,29.90,WSW,248,6.0,16.0,97,0.00,,,4.86,VWS V14.01,2013-11-08 14:30:00,
2013-11-08 09:00:00,77.8,76.9,29.91,WSW,248,8.0,16.0,97,0.02,,,4.88,VWS V14.01,2013-11-08 15:00:00,
2013-11-08 09:30:00,77.6,76.7,29.92,WSW,248,7.0,17.0,97,0.04,,,4.90,VWS V14.01,2013-11-08 15:30:00,
2013-11-08 10:00:00,77.6,76.7,29.91,WSW,248,7.0,16.0,97,0.04,,,4.90,VWS V14.01,2013-11-08 16:00:00,
2013-11-08 10:36:00,77.6,76.7,29.91,WSW,248,7.0,16.0,97,0.04,,,4.90,VWS V14.01,2013-11-08 16:36:00,
2013-11-08 10:41:00,77.7,76.5,29.90,West,263,5.0,11.0,96,0.02,,,4.90,VWS V14.01,2013-11-08 16:41:00,
2013-11-08 10:46:00,77.7,76.5,29.90,West,265,3.0,12.0,96,0.02,,,4.90,VWS V14.01,2013-11-08 16:46:00,
2013-11-08 10:51:00,77.7,76.5,29.90,WSW,248,7.0,12.0,96,0.02,,,4.90,VWS V14.01,2013-11-08 16:51:00,
2013-11-08 10:56:00,77.9,76.7,29.89,SW,226,7.0,12.0,96,0.02,,,4.90,VWS V14.01,2013-11-08 16:56:00,
2013-11-08 11:00:00,78.1,76.9,29.90,West,267,6.0,12.0,96,0.02,,,4.90,VWS V15.00,2013-11-08 17:00:00,
2013-11-08 11:01:00,78.1,76.9,29.90,WNW,284,4.0,6.0,96,0.00,,,4.90,VWS V14.01,2013-11-08 17:01:00,
2013-11-08 11:06:00,78.0,76.8,29.89,WSW,250,9.0,16.0,96,0.00,,,4.90,VWS V14.01,2013-11-08 17:06:00,
2013-11-08 11:11:00,77.8,76.6,29.89,WSW,248,10.0,16.0,96,0.00,,,4.90,VWS V14.01,2013-11-08 17:11:00,
2013-11-08 11:16:00,77.8,76.6,29.89,SW,221,4.0,16.0,96,0.00,,,4.90,VWS V14.01,2013-11-08 17:16:00,
2013-11-08 11:21:00,78.1,77.2,29.88,SSW,199,3.0,16.0,97,0.00,,,4.90,VWS V14.01,2013-11-08 17:21:00,
2013-11-08 11:26:00,78.5,77.3,29.88,WSW,245,10.0,16.0,96,0.00,,,4.90,VWS V14.01,2013-11-08 17:26:00,
2013-11-08 11:30:00,79.1,77.9,29.88,WSW,245,2.0,16.0,96,0.00,,,4.90,VWS V15.00,2013-11-08 17:30:00,
2013-11-08 11:31:00,79.1,77.9,29.88,WSW,245,2.0,16.0,96,0.00,,,4.90,VWS V14.01,2013-11-08 17:31:00,
2013-11-08 11:36:00,79.3,78.1,29.88,West,266,8.0,10.0,96,0.00,,,4.90,VWS V14.01,2013-11-08 17:36:00,
2013-11-08 11:41:00,79.7,78.2,29.87,WSW,253,8.0,10.0,95,0.00,,,4.90,VWS V14.01,2013-11-08 17:41:00,
2013-11-08 11:46:00,79.9,78.3,29.87,WNW,288,5.0,10.0,95,0.00,,,4.90,VWS V14.01,2013-11-08 17:46:00,
2013-11-08 11:51:00,80.0,78.4,29.87,West,262,4.0,12.0,95,0.00,,,4.90,VWS V14.01,2013-11-08 17:51:00,
2013-11-08 11:56:00,80.3,78.4,29.86,SSW,200,6.0,12.0,94,0.00,,,4.90,VWS V14.01,2013-11-08 17:56:00,
2013-11-08 12:00:00,80.6,78.4,29.86,WNW,283,3.0,12.0,93,0.00,,,4.90,VWS V15.00,2013-11-08 18:00:00,
2013-11-08 12:30:00,80.2,77.7,29.84,SW,234,3.0,15.0,92,0.03,,,4.93,VWS V15.00,2013-11-08 18:30:00,
2013-11-08 13:00:00,78.1,76.9,29.84,WSW,243,0.0,10.0,96,0.67,,,5.57,VWS V15.00,2013-11-08 19:00:00,
2013-11-08 13:30:00,77.3,76.1,29.82,NW,321,0.0,9.0,96,1.24,,,6.14,VWS V15.00,2013-11-08 19:30:00,
2013-11-08 14:00:00,78.7,77.5,29.81,NE,53,0.0,4.0,96,1.21,,,6.14,VWS V15.00,2013-11-08 20:00:00,
2013-11-08 14:30:00,78.7,76.8,29.80,South,183,2.0,5.0,94,0.58,,,6.15,VWS V15.00,2013-11-08 20:30:00,
2013-11-08 14:43:00,78.5,76.6,29.80,ENE,63,0.0,3.0,94,0.01,,,6.15,VWS V14.01,2013-11-08 20:43:00,
2013-11-08 14:48:00,78.9,77.0,29.80,SSE,148,0.0,3.0,94,0.01,,,6.15,VWS V14.01,2013-11-08 20:48:00,
2013-11-08 14:53:00,78.9,76.7,29.80,SW,215,3.0,3.0,93,0.01,,,6.15,VWS V14.01,2013-11-08 20:53:00,
2013-11-08 14:58:00,78.9,76.7,29.81,SSW,211,2.0,3.0,93,0.01,,,6.15,VWS V14.01,2013-11-08 20:58:00,
2013-11-08 15:00:00,78.9,76.4,29.81,WNW,290,1.0,3.0,92,0.01,,,6.15,VWS V15.00,2013-11-08 21:00:00,
2013-11-08 15:03:00,79.0,76.5,29.81,SSW,211,2.0,2.0,92,0.01,,,6.15,VWS V14.01,2013-11-08 21:03:00,
2013-11-08 15:08:00,79.1,76.6,29.81,SW,236,1.0,3.0,92,0.01,,,6.15,VWS V14.01,2013-11-08 21:08:00,
2013-11-08 15:13:00,79.2,76.7,29.81,SW,214,3.0,4.0,92,0.01,,,6.15,VWS V14.01,2013-11-08 21:13:00,
2013-11-08 15:18:00,79.2,76.3,29.81,SW,220,3.0,5.0,91,0.01,,,6.15,VWS V14.01,2013-11-08 21:18:00,
2013-11-08 15:23:00,79.3,76.4,29.81,SW,228,3.0,6.0,91,0.01,,,6.15,VWS V14.01,2013-11-08 21:23:00,
2013-11-08 15:28:00,79.5,76.7,29.81,WSW,255,2.0,8.0,91,0.01,,,6.15,VWS V14.01,2013-11-08 21:28:00,
2013-11-08 15:30:00,79.5,77.0,29.81,SSW,200,4.0,8.0,92,0.01,,,6.15,VWS V15.00,2013-11-08 21:30:00,
2013-11-08 15:33:00,79.4,76.9,29.81,SSW,197,4.0,7.0,92,0.00,,,6.15,VWS V14.01,2013-11-08 21:33:00,
2013-11-08 15:38:00,79.2,76.3,29.82,SSW,208,6.0,8.0,91,0.00,,,6.15,VWS V14.01,2013-11-08 21:38:00,
2013-11-08 15:43:00,79.2,76.3,29.82,SW,217,6.0,8.0,91,0.00,,,6.15,VWS V14.01,2013-11-08 21:43:00,
2013-11-08 15:48:00,79.3,76.8,29.82,SW,226,10.0,10.0,92,0.00,,,6.15,VWS V14.01,2013-11-08 21:48:00,
2013-11-08 15:53:00,79.3,76.8,29.82,SSW,210,10.0,11.0,92,0.00,,,6.15,VWS V14.01,2013-11-08 21:53:00,
2013-11-08 15:58:00,79.4,76.6,29.82,SSW,195,7.0,13.0,91,0.00,,,6.15,VWS V14.01,2013-11-08 21:58:00,
2013-11-08 16:00:00,79.5,77.0,29.82,SW,229,9.0,14.0,92,0.00,,,6.15,VWS V15.00,2013-11-08 22:00:00,
2013-11-08 16:03:00,79.5,77.0,29.82,SW,226,5.0,10.0,92,0.00,,,6.15,VWS V14.01,2013-11-08 22:03:00,
2013-11-08 16:08:00,79.5,76.7,29.82,SW,215,6.0,10.0,91,0.00,,,6.15,VWS V14.01,2013-11-08 22:08:00,
2013-11-08 16:13:00,79.6,76.4,29.82,SSW,193,4.0,10.0,90,0.00,,,6.15,VWS V14.01,2013-11-08 22:13:00,
2013-11-08 16:18:00,79.8,76.9,29.82,WSW,248,2.0,10.0,91,0.00,,,6.15,VWS V14.01,2013-11-08 22:18:00,
2013-11-08 16:23:00,79.7,77.2,29.82,SSE,158,1.0,11.0,92,0.00,,,6.15,VWS V14.01,2013-11-08 22:23:00,
2013-11-08 16:28:00,79.7,77.2,29.82,West,269,2.0,11.0,92,0.00,,,6.15,VWS V14.01,2013-11-08 22:28:00,
2013-11-08 16:30:00,79.6,77.1,29.82,West,271,1.0,11.0,92,0.00,,,6.15,VWS V15.00,2013-11-08 22:30:00,
2013-11-08 16:33:00,79.4,76.9,29.82,West,263,5.0,6.0,92,0.00,,,6.15,VWS V14.01,2013-11-08 22:33:00,
2013-11-08 16:40:00,78.9,76.7,29.83,WSW,243,0.0,6.0,93,0.03,,,6.18,VWS V14.01,2013-11-08 22:40:00,
2013-11-08 16:45:00,78.7,76.8,29.83,WSW,252,0.0,6.0,94,0.03,,,6.18,VWS V14.01,2013-11-08 22:45:00,
2013-11-08 16:55:00,78.5,76.6,29.84,WSW,253,0.0,6.0,94,0.03,,,6.18,VWS V14.01,2013-11-08 22:55:00,
2013-11-08 17:00:00,78.4,76.5,29.84,West,271,2.0,6.0,94,0.03,,,6.18,VWS V14.01,2013-11-08 23:00:00,
2013-11-08 17:05:00,78.1,76.2,29.83,WNW,299,0.0,2.0,94,0.03,,,6.18,VWS V14.01,2013-11-08 23:05:00,
2013-11-08 17:10:00,77.9,76.4,29.84,WSW,253,1.0,2.0,95,0.03,,,6.18,VWS V14.01,2013-11-08 23:10:00,
2013-11-08 17:15:00,77.8,76.3,29.84,SSW,200,0.0,2.0,95,0.03,,,6.18,VWS V14.01,2013-11-08 23:15:00,
2013-11-08 17:20:00,77.8,76.3,29.84,WSW,248,0.0,2.0,95,0.03,,,6.18,VWS V14.01,2013-11-08 23:20:00,
2013-11-08 17:25:00,77.7,76.2,29.84,WSW,246,0.0,3.0,95,0.03,,,6.18,VWS V14.01,2013-11-08 23:25:00,
2013-11-08 17:30:00,77.6,76.4,29.84,WSW,258,1.0,3.0,96,0.03,,,6.18,VWS V14.01,2013-11-08 23:30:00,
2013-11-08 17:35:00,77.6,76.4,29.85,NNE,13,0.0,2.0,96,0.03,,,6.18,VWS V14.01,2013-11-08 23:35:00,
2013-11-08 17:40:00,77.6,76.4,29.85,NNE,13,0.0,2.0,96,0.13,,,6.28,VWS V14.01,2013-11-08 23:40:00,
2013-11-08 17:45:00,77.6,76.4,29.85,NW,304,0.0,2.0,96,0.17,,,6.32,VWS V14.01,2013-11-08 23:45:00,
2013-11-08 17:50:00,77.5,76.3,29.85,ENE,58,0.0,2.0,96,0.17,,,6.32,VWS V14.01,2013-11-08 23:50:00,
2013-11-08 17:55:00,77.7,76.8,29.85,East,84,0.0,2.0,97,0.18,,,6.33,VWS V14.01,2013-11-08 23:55:00,
2013-11-08 18:00:00,77.7,76.5,29.84,East,86,0.0,2.0,96,0.20,,,6.35,VWS V14.01,2013-11-09 00:00:00,
2013-11-08 18:05:00,77.5,76.3,29.84,SW,221,2.0,2.0,96,0.18,,,6.36,VWS V14.01,2013-11-09 00:05:00,
2013-11-08 18:10:00,77.4,76.2,29.85,SW,217,3.0,3.0,96,0.18,,,6.36,VWS V14.01,2013-11-09 00:10:00,
2013-11-08 18:15:00,77.5,76.3,29.85,SSW,209,2.0,4.0,96,0.18,,,6.36,VWS V14.01,2013-11-09 00:15:00,
2013-11-08 18:20:00,77.5,76.3,29.85,WSW,246,0.0,4.0,96,0.18,,,6.36,VWS V14.01,2013-11-09 00:20:00,
2013-11-08 18:25:00,77.6,76.1,29.85,SW,226,0.0,4.0,95,0.18,,,6.36,VWS V14.01,2013-11-09 00:25:00,
2013-11-08 18:30:00,77.7,76.2,29.85,WSW,246,0.0,4.0,95,0.18,,,6.36,VWS V14.01,2013-11-09 00:30:00,
2013-11-08 18:35:00,77.6,76.1,29.86,WSW,256,1.0,2.0,95,0.18,,,6.36,VWS V14.01,2013-11-09 00:35:00,
2013-11-08 18:40:00,77.4,75.9,29.86,West,277,0.0,2.0,95,0.18,,,6.36,VWS V14.01,2013-11-09 00:40:00,
2013-11-08 18:45:00,77.2,75.7,29.86,West,277,0.0,2.0,95,0.18,,,6.36,VWS V14.01,2013-11-09 00:45:00,
2013-11-08 18:50:00,77.1,75.6,29.86,WSW,257,0.0,2.0,95,0.18,,,6.36,VWS V14.01,2013-11-09 00:50:00,
2013-11-08 18:55:00,77.0,75.8,29.86,West,267,0.0,2.0,96,0.18,,,6.36,VWS V14.01,2013-11-09 00:55:00,
2013-11-08 19:00:00,77.0,75.5,29.86,West,277,0.0,2.0,95,0.18,,,6.36,VWS V15.00,2013-11-09 01:00:00,
2013-11-08 19:01:00,76.9,75.4,29.86,West,277,0.0,0.0,95,0.01,,,6.36,VWS V14.01,2013-11-09 01:01:00,
2013-11-08 19:06:00,76.9,75.7,29.86,WSW,255,0.0,1.0,96,0.01,,,6.36,VWS V14.01,2013-11-09 01:06:00,
2013-11-08 19:11:00,76.8,75.6,29.86,WSW,256,0.0,1.0,96,0.01,,,6.36,VWS V14.01,2013-11-09 01:11:00,
2013-11-08 19:16:00,76.8,75.6,29.87,WSW,255,0.0,1.0,96,0.01,,,6.36,VWS V14.01,2013-11-09 01:16:00,
2013-11-08 19:21:00,76.7,75.5,29.86,WSW,254,0.0,1.0,96,0.01,,,6.36,VWS V14.01,2013-11-09 01:21:00,
2013-11-08 19:26:00,76.6,75.4,29.87,WSW,256,0.0,1.0,96,0.01,,,6.36,VWS V14.01,2013-11-09 01:26:00,
2013-11-08 19:30:00,76.5,75.3,29.87,WSW,256,0.0,1.0,96,0.01,,,6.36,VWS V15.00,2013-11-09 01:30:00,
2013-11-08 19:31:00,76.5,75.3,29.87,WSW,256,0.0,0.0,96,0.00,,,6.36,VWS V14.01,2013-11-09 01:31:00,
2013-11-08 19:36:00,76.4,75.2,29.87,WSW,256,0.0,1.0,96,0.00,,,6.36,VWS V14.01,2013-11-09 01:36:00,
2013-11-08 19:41:00,76.3,75.1,29.87,NW,317,0.0,1.0,96,0.00,,,6.36,VWS V14.01,2013-11-09 01:41:00,
2013-11-08 19:46:00,76.4,75.5,29.87,NW,316,0.0,1.0,97,0.00,,,6.36,VWS V14.01,2013-11-09 01:46:00,
2013-11-08 19:51:00,76.6,75.7,29.87,NE,45,2.0,3.0,97,0.00,,,6.36,VWS V14.01,2013-11-09 01:51:00,
2013-11-08 19:56:00,76.7,75.8,29.87,NE,45,0.0,3.0,97,0.00,,,6.36,VWS V14.01,2013-11-09 01:56:00,
2013-11-08 20:00:00,76.8,75.9,29.87,NE,45,0.0,3.0,97,0.00,,,6.36,VWS V15.00,2013-11-09 02:00:00,
2013-11-08 20:01:00,76.8,75.9,29.87,NE,46,0.0,0.0,97,0.00,,,6.36,VWS V14.01,2013-11-09 02:01:00,
2013-11-08 20:06:00,76.7,75.8,29.87,NE,44,0.0,0.0,97,0.00,,,6.36,VWS V14.01,2013-11-09 02:06:00,
2013-11-08 20:11:00,76.6,75.7,29.87,NE,44,0.0,1.0,97,0.00,,,6.36,VWS V14.01,2013-11-09 02:11:00,
2013-11-08 20:16:00,76.8,75.9,29.87,NE,44,0.0,1.0,97,0.00,,,6.36,VWS V14.01,2013-11-09 02:16:00,
2013-11-08 20:21:00,77.2,76.6,29.88,SSW,212,4.0,4.0,98,0.00,,,6.36,VWS V14.01,2013-11-09 02:21:00,
2013-11-08 20:26:00,77.9,77.3,29.88,WSW,252,4.0,6.0,98,0.00,,,6.36,VWS V14.01,2013-11-09 02:26:00,
2013-11-08 20:30:00,78.3,77.4,29.88,SSE,166,3.0,7.0,97,0.00,,,6.36,VWS V15.00,2013-11-09 02:30:00,
2013-11-08 20:31:00,78.4,77.5,29.88,SW,221,5.0,5.0,97,0.00,,,6.36,VWS V14.01,2013-11-09 02:31:00,
2013-11-08 20:36:00,78.5,77.3,29.88,SE,132,3.0,6.0,96,0.00,,,6.36,VWS V14.01,2013-11-09 02:36:00,
2013-11-08 20:41:00,78.7,77.2,29.88,SSW,203,4.0,7.0,95,0.00,,,6.36,VWS V14.01,2013-11-09 02:41:00,
2013-11-08 20:46:00,78.8,77.2,29.88,SSW,205,6.0,7.0,95,0.00,,,6.36,VWS V14.01,2013-11-09 02:46:00,
2013-11-08 20:51:00,78.9,77.3,29.88,SSW,195,3.0,7.0,95,0.00,,,6.36,VWS V14.01,2013-11-09 02:51:00,
2013-11-08 20:56:00,78.9,77.0,29.88,SW,236,6.0,8.0,94,0.00,,,6.36,VWS V14.01,2013-11-09 02:56:00,
2013-11-08 21:00:00,78.9,77.0,29.88,WSW,237,7.0,8.0,94,0.00,,,6.36,VWS V15.00,2013-11-09 03:00:00,
2013-11-08 21:01:00,78.9,77.0,29.88,SSW,201,6.0,8.0,94,0.00,,,6.36,VWS V14.01,2013-11-09 03:01:00,
2013-11-08 21:06:00,79.0,77.1,29.88,SW,214,4.0,8.0,94,0.00,,,6.36,VWS V14.01,2013-11-09 03:06:00,
2013-11-08 21:11:00,79.2,77.3,29.88,SSW,211,5.0,8.0,94,0.00,,,6.36,VWS V14.01,2013-11-09 03:11:00,
2013-11-08 21:16:00,79.2,77.0,29.88,SSW,202,3.0,8.0,93,0.00,,,6.36,VWS V14.01,2013-11-09 03:16:00,
2013-11-08 21:21:00,79.3,77.1,29.88,SSW,205,3.0,8.0,93,0.00,,,6.36,VWS V14.01,2013-11-09 03:21:00,
2013-11-08 21:26:00,79.3,77.1,29.88,WSW,239,2.0,8.0,93,0.00,,,6.36,VWS V14.01,2013-11-09 03:26:00,
2013-11-08 21:30:00,79.4,77.2,29.88,SSW,208,3.0,8.0,93,0.00,,,6.36,VWS V15.00,2013-11-09 03:30:00,
2013-11-08 21:31:00,79.4,76.9,29.88,WSW,250,2.0,4.0,92,0.00,,,6.36,VWS V14.01,2013-11-09 03:31:00,
2013-11-08 21:36:00,79.0,76.5,29.88,West,264,0.0,4.0,92,0.00,,,6.36,VWS V14.01,2013-11-09 03:36:00,
2013-11-08 21:41:00,78.7,76.5,29.88,WSW,245,0.0,4.0,93,0.00,,,6.36,VWS V14.01,2013-11-09 03:41:00,
2013-11-08 21:46:00,78.5,76.3,29.88,West,277,2.0,4.0,93,0.00,,,6.36,VWS V14.01,2013-11-09 03:46:00,
2013-11-08 21:51:00,78.5,76.6,29.88,SW,236,2.0,4.0,94,0.00,,,6.36,VWS V14.01,2013-11-09 03:51:00,
2013-11-08 21:56:00,78.5,76.6,29.88,WSW,245,0.0,4.0,94,0.00,,,6.36,VWS V14.01,2013-11-09 03:56:00,
2013-11-08 22:00:00,78.5,76.6,29.88,WSW,246,0.0,4.0,94,0.01,,,6.37,VWS V15.00,2013-11-09 04:00:00,
2013-11-08 22:01:00,78.5,76.6,29.88,WSW,253,0.0,1.0,94,0.01,,,6.37,VWS V14.01,2013-11-09 04:01:00,
2013-11-08 22:06:00,78.3,76.4,29.88,West,277,0.0,2.0,94,0.01,,,6.37,VWS V14.01,2013-11-09 04:06:00,
2013-11-08 22:11:00,78.3,76.4,29.88,WSW,253,0.0,3.0,94,0.02,,,6.38,VWS V14.01,2013-11-09 04:11:00,
2013-11-08 22:16:00,78.3,76.8,29.88,WSW,239,0.0,3.0,95,0.02,,,6.38,VWS V14.01,2013-11-09 04:16:00,
2013-11-08 22:21:00,78.4,76.5,29.88,WSW,243,0.0,3.0,94,0.02,,,6.38,VWS V14.01,2013-11-09 04:21:00,
2013-11-08 22:26:00,78.3,76.4,29.88,WSW,246,2.0,3.0,94,0.02,,,6.38,VWS V14.01,2013-11-09 04:26:00,
2013-11-08 22:30:00,78.2,76.7,29.88,WNW,297,1.0,4.0,95,0.02,,,6.38,VWS V15.00,2013-11-09 04:30:00,
2013-11-08 22:31:00,78.2,76.7,29.88,WSW,246,0.0,1.0,95,0.02,,,6.38,VWS V14.01,2013-11-09 04:31:00,
2013-11-08 22:36:00,78.1,76.6,29.87,WSW,242,1.0,4.0,95,0.02,,,6.38,VWS V14.01,2013-11-09 04:36:00,
2013-11-08 22:41:00,78.2,76.7,29.87,WSW,240,0.0,4.0,95,0.02,,,6.38,VWS V14.01,2013-11-09 04:41:00,
2013-11-08 22:46:00,78.4,76.8,29.87,SW,217,7.0,7.0,95,0.02,,,6.38,VWS V14.01,2013-11-09 04:46:00,
2013-11-08 22:51:00,78.8,76.9,29.87,SSW,197,5.0,8.0,94,0.02,,,6.38,VWS V14.01,2013-11-09 04:51:00,
2013-11-08 22:56:00,79.0,77.1,29.87,South,180,2.0,8.0,94,0.02,,,6.38,VWS V14.01,2013-11-09 04:56:00,
2013-11-08 23:00:00,79.0,76.8,29.87,West,272,2.0,8.0,93,0.02,,,6.38,VWS V15.00,2013-11-09 05:00:00,
2013-11-08 23:01:00,79.0,76.8,29.87,West,262,1.0,8.0,93,0.02,,,6.38,VWS V14.01,2013-11-09 05:01:00,
2013-11-08 23:06:00,78.7,76.5,29.87,WSW,250,0.0,3.0,93,0.01,,,6.38,VWS V14.01,2013-11-09 05:06:00,
2013-11-08 23:11:00,78.3,76.4,29.87,WSW,249,1.0,4.0,94,0.01,,,6.38,VWS V14.01,2013-11-09 05:11:00,
2013-11-08 23:16:00,78.1,76.6,29.87,West,264,1.0,4.0,95,0.01,,,6.38,VWS V14.01,2013-11-09 05:16:00,
2013-11-08 23:21:00,77.9,76.4,29.88,NW,310,2.0,5.0,95,0.01,,,6.38,VWS V14.01,2013-11-09 05:21:00,
2013-11-08 23:26:00,77.7,76.2,29.88,NW,306,2.0,5.0,95,0.01,,,6.38,VWS V14.01,2013-11-09 05:26:00,
2013-11-08 23:30:00,77.6,76.4,29.88,WSW,246,2.0,5.0,96,0.01,,,6.38,VWS V15.00,2013-11-09 05:30:00,
2013-11-08 23:31:00,77.6,76.4,29.88,West,276,2.0,2.0,96,0.00,,,6.38,VWS V14.01,2013-11-09 05:31:00,